createdAt,value
2017-06-14T00:00:52.763Z,0
2017-06-14T00:02:14.713Z,0
2017-06-14T00:03:36.694Z,0
2017-06-14T00:04:58.510Z,0
2017-06-14T00:06:20.900Z,0
2017-06-14T00:07:43.038Z,0
2017-06-14T00:09:04.860Z,0
2017-06-14T00:10:27.004Z,0
2017-06-14T00:11:48.935Z,0
2017-06-14T00:13:11.082Z,0
2017-06-14T00:14:33.529Z,0
2017-06-14T00:15:55.326Z,0
2017-06-14T00:17:17.154Z,0
2017-06-14T00:18:39.753Z,0
2017-06-14T00:20:01.894Z,0
2017-06-14T00:21:24.463Z,0
2017-06-14T00:22:46.977Z,0
2017-06-14T00:24:09.144Z,0
2017-06-14T00:25:31.054Z,0
2017-06-14T00:26:53.210Z,0
2017-06-14T00:28:15.833Z,0
2017-06-14T00:29:37.675Z,0
2017-06-14T00:30:59.803Z,0
2017-06-14T00:32:21.623Z,0
2017-06-14T00:33:43.444Z,0
2017-06-14T00:35:05.911Z,0
2017-06-14T00:36:28.394Z,0
2017-06-14T00:37:50.323Z,0
2017-06-14T00:39:12.805Z,0
2017-06-14T00:40:34.319Z,0
2017-06-14T00:41:56.140Z,0
2017-06-14T00:43:17.975Z,0
2017-06-14T00:44:40.832Z,0
2017-06-14T00:46:02.669Z,0
2017-06-14T00:47:24.173Z,0
2017-06-14T00:48:46.297Z,0
2017-06-14T00:50:08.231Z,0
2017-06-14T00:51:30.386Z,0
2017-06-14T00:52:51.574Z,0
2017-06-14T00:54:13.403Z,0
2017-06-14T00:55:35.960Z,0
2017-06-14T00:56:57.915Z,0
2017-06-14T00:58:19.852Z,0
2017-06-14T00:59:42.313Z,0
2017-06-14T01:01:04.463Z,0
2017-06-14T01:02:26.604Z,0
2017-06-14T01:03:48.094Z,0
2017-06-14T01:05:10.553Z,0
2017-06-14T01:06:33.312Z,0
2017-06-14T01:07:54.823Z,0
2017-06-14T01:09:17.303Z,0
2017-06-14T01:10:39.765Z,0
2017-06-14T01:12:01.383Z,0
2017-06-14T01:13:23.231Z,0
2017-06-14T01:14:45.057Z,0
2017-06-14T01:16:07.592Z,0
2017-06-14T01:17:29.413Z,0
2017-06-14T01:18:51.595Z,0
2017-06-14T01:20:13.719Z,0
2017-06-14T01:21:36.193Z,0
2017-06-14T01:22:57.699Z,0
2017-06-14T01:24:18.880Z,0
2017-06-14T01:25:41.403Z,0
2017-06-14T01:27:03.552Z,0
2017-06-14T01:28:25.682Z,0
2017-06-14T01:29:47.511Z,0
2017-06-14T01:31:10.112Z,0
2017-06-14T01:32:31.933Z,0
2017-06-14T01:33:54.084Z,0
2017-06-14T01:35:15.595Z,0
2017-06-14T01:36:37.743Z,0
2017-06-14T01:37:59.552Z,0
2017-06-14T01:39:22.175Z,0
2017-06-14T01:40:44.662Z,0
2017-06-14T01:42:07.193Z,0
2017-06-14T01:43:29.321Z,0
2017-06-14T01:44:51.143Z,0
2017-06-14T01:46:13.288Z,0
2017-06-14T01:47:35.561Z,0
2017-06-14T01:48:57.362Z,0
2017-06-14T01:50:19.171Z,0
2017-06-14T01:51:41.364Z,0
2017-06-14T01:53:03.494Z,0
2017-06-14T01:54:25.742Z,0
2017-06-14T01:55:47.563Z,0
2017-06-14T01:57:09.073Z,0
2017-06-14T01:58:31.712Z,0
2017-06-14T01:59:53.845Z,0
2017-06-14T02:01:16.723Z,0
2017-06-14T02:02:38.882Z,4
2017-06-14T02:04:01.024Z,4
2017-06-14T02:05:23.143Z,0
2017-06-14T02:06:44.656Z,4
2017-06-14T02:08:06.573Z,4
2017-06-14T02:09:29.020Z,4
2017-06-14T02:10:51.159Z,4
2017-06-14T02:12:12.957Z,4
2017-06-14T02:13:35.523Z,4
2017-06-14T02:14:57.345Z,8
2017-06-14T02:16:19.274Z,8
2017-06-14T02:17:41.456Z,12
2017-06-14T02:19:02.964Z,12
2017-06-14T02:20:25.420Z,8
2017-06-14T02:21:46.913Z,12
2017-06-14T02:23:09.403Z,16
2017-06-14T02:24:31.232Z,16
2017-06-14T02:25:53.402Z,20
2017-06-14T02:27:15.045Z,20
2017-06-14T02:28:37.182Z,24
2017-06-14T02:29:59.651Z,28
2017-06-14T02:31:21.934Z,28
2017-06-14T02:32:43.539Z,32
2017-06-14T02:34:05.775Z,36
2017-06-14T02:35:27.903Z,44
2017-06-14T02:36:50.492Z,52
2017-06-14T02:38:12.665Z,64
2017-06-14T02:39:34.175Z,76
2017-06-14T02:40:56.325Z,100
2017-06-14T02:42:18.274Z,116
2017-06-14T02:43:40.103Z,140
2017-06-14T02:45:02.253Z,152
2017-06-14T02:46:24.400Z,156
2017-06-14T02:47:46.519Z,164
2017-06-14T02:49:08.417Z,180
2017-06-14T02:50:30.597Z,208
2017-06-14T02:51:52.725Z,236
2017-06-14T02:53:14.919Z,276
2017-06-14T02:54:36.731Z,312
2017-06-14T02:55:58.559Z,348
2017-06-14T02:57:20.691Z,384
2017-06-14T02:58:42.503Z,428
2017-06-14T03:00:04.009Z,496
2017-06-14T03:01:26.351Z,568
2017-06-14T03:02:48.581Z,636
2017-06-14T03:04:10.711Z,700
2017-06-14T03:05:33.296Z,756
2017-06-14T03:06:55.793Z,804
2017-06-14T03:08:17.971Z,848
2017-06-14T03:09:40.111Z,892
2017-06-14T03:11:01.605Z,948
2017-06-14T03:12:24.053Z,1004
2017-06-14T03:13:46.186Z,1056
2017-06-14T03:15:08.023Z,1104
2017-06-14T03:16:30.169Z,1160
2017-06-14T03:17:52.321Z,1224
2017-06-14T03:19:14.782Z,1308
2017-06-14T03:20:36.622Z,1384
2017-06-14T03:21:58.283Z,1452
2017-06-14T03:23:20.422Z,1504
2017-06-14T03:24:41.673Z,1556
2017-06-14T03:26:03.824Z,1624
2017-06-14T03:27:25.999Z,1700
2017-06-14T03:28:48.803Z,1776
2017-06-14T03:30:10.950Z,1872
2017-06-14T03:31:33.072Z,1956
2017-06-14T03:32:55.648Z,2036
2017-06-14T03:34:17.857Z,2116
2017-06-14T03:35:39.810Z,2192
2017-06-14T03:37:01.650Z,2280
2017-06-14T03:38:24.104Z,2356
2017-06-14T03:39:45.953Z,2404
2017-06-14T03:41:07.699Z,2476
2017-06-14T03:42:30.258Z,2636
2017-06-14T03:43:52.082Z,2812
2017-06-14T03:45:14.612Z,2964
2017-06-14T03:46:36.920Z,3068
2017-06-14T03:47:58.771Z,3128
2017-06-14T03:49:20.664Z,3196
2017-06-14T03:50:42.835Z,3304
2017-06-14T03:52:04.962Z,3404
2017-06-14T03:53:27.415Z,3400
2017-06-14T03:54:48.933Z,3700
2017-06-14T03:56:11.174Z,3988
2017-06-14T03:57:33.313Z,4152
2017-06-14T03:58:55.444Z,4296
2017-06-14T04:00:17.816Z,4452
2017-06-14T04:01:40.043Z,4576
2017-06-14T04:03:01.874Z,4656
2017-06-14T04:04:23.685Z,4716
2017-06-14T04:05:46.162Z,4792
2017-06-14T04:07:08.011Z,4864
2017-06-14T04:08:30.202Z,4936
2017-06-14T04:09:52.030Z,4988
2017-06-14T04:11:14.333Z,5076
2017-06-14T04:12:36.498Z,5128
2017-06-14T04:13:58.311Z,5140
2017-06-14T04:15:20.452Z,5084
2017-06-14T04:16:42.301Z,4944
2017-06-14T04:18:05.033Z,4972
2017-06-14T04:19:27.309Z,5056
2017-06-14T04:20:48.804Z,5092
2017-06-14T04:22:10.634Z,5140
2017-06-14T04:23:33.143Z,5108
2017-06-14T04:24:54.649Z,4676
2017-06-14T04:26:17.128Z,5008
2017-06-14T04:27:39.171Z,5600
2017-06-14T04:29:01.661Z,5688
2017-06-14T04:30:23.480Z,5716
2017-06-14T04:31:45.712Z,5716
2017-06-14T04:33:06.963Z,5764
2017-06-14T04:34:29.445Z,5868
2017-06-14T04:35:50.974Z,6012
2017-06-14T04:37:12.941Z,6152
2017-06-14T04:38:34.143Z,6300
2017-06-14T04:39:55.972Z,6628
2017-06-14T04:41:17.925Z,7040
2017-06-14T04:42:39.764Z,7404
2017-06-14T04:44:01.612Z,7880
2017-06-14T04:45:23.678Z,8368
2017-06-14T04:46:46.174Z,8876
2017-06-14T04:48:08.773Z,9464
2017-06-14T04:49:30.302Z,14468
2017-06-14T04:50:52.734Z,28928
2017-06-14T04:52:14.894Z,36288
2017-06-14T04:53:37.376Z,36768
2017-06-14T04:54:59.320Z,37824
2017-06-14T04:56:22.132Z,38720
2017-06-14T04:57:43.330Z,39200
2017-06-14T04:59:05.492Z,38432
2017-06-14T05:00:27.713Z,38624
2017-06-14T05:01:49.884Z,38496
2017-06-14T05:03:11.734Z,37536
2017-06-14T05:04:33.573Z,39264
2017-06-14T05:05:55.442Z,40096
2017-06-14T05:07:17.668Z,40416
2017-06-14T05:08:40.208Z,40608
2017-06-14T05:10:01.744Z,41792
2017-06-14T05:11:24.230Z,43008
2017-06-14T05:12:46.403Z,43232
2017-06-14T05:14:08.244Z,42368
2017-06-14T05:15:30.141Z,41792
2017-06-14T05:16:51.981Z,41696
2017-06-14T05:18:13.506Z,42784
2017-06-14T05:19:35.333Z,43232
2017-06-14T05:20:57.495Z,43136
2017-06-14T05:22:20.085Z,43808
2017-06-14T05:23:42.351Z,42944
2017-06-14T05:25:04.840Z,42528
2017-06-14T05:26:27.003Z,41728
2017-06-14T05:27:48.873Z,42112
2017-06-14T05:29:11.027Z,44160
2017-06-14T05:30:32.557Z,43552
2017-06-14T05:31:54.714Z,45920
2017-06-14T05:33:16.981Z,47264
2017-06-14T05:34:39.149Z,47328
2017-06-14T05:36:01.603Z,49024
2017-06-14T05:37:23.445Z,48800
2017-06-14T05:38:45.295Z,46976
2017-06-14T05:40:07.659Z,48800
2017-06-14T05:41:29.512Z,49984
2017-06-14T05:42:52.176Z,49184
2017-06-14T05:44:14.353Z,50240
2017-06-14T05:45:35.296Z,50368
2017-06-14T05:46:57.795Z,50528
2017-06-14T05:48:20.034Z,51360
2017-06-14T05:49:42.575Z,50912
2017-06-14T05:51:04.413Z,50976
2017-06-14T05:52:26.573Z,51232
2017-06-14T05:53:48.743Z,52928
2017-06-14T05:55:10.262Z,52480
2017-06-14T05:56:32.721Z,51776
2017-06-14T05:57:54.244Z,53344
2017-06-14T05:59:16.575Z,55264
2017-06-14T06:00:39.143Z,58464
2017-06-14T06:02:00.364Z,56992
2017-06-14T06:03:22.851Z,58464
2017-06-14T06:04:45.033Z,58432
2017-06-14T06:06:07.183Z,58048
2017-06-14T06:07:28.820Z,57728
2017-06-14T06:08:50.655Z,58080
2017-06-14T06:10:12.222Z,57408
2017-06-14T06:11:34.703Z,55872
2017-06-14T06:12:56.954Z,52704
2017-06-14T06:14:18.774Z,50048
2017-06-14T06:15:40.624Z,50336
2017-06-14T06:17:03.104Z,48672
2017-06-14T06:18:25.271Z,49408
2017-06-14T06:19:46.214Z,51456
2017-06-14T06:21:08.384Z,50240
2017-06-14T06:22:30.693Z,50240
2017-06-14T06:23:52.542Z,49536
2017-06-14T06:25:14.403Z,46304
2017-06-14T06:26:36.313Z,46496
2017-06-14T06:27:58.154Z,50688
2017-06-14T06:29:20.374Z,52960
2017-06-14T06:30:42.216Z,55808
2017-06-14T06:32:04.373Z,58176
2017-06-14T06:33:26.281Z,58176
2017-06-14T06:34:48.804Z,26496
2017-06-14T06:36:10.650Z,50208
2017-06-14T06:37:33.123Z,51232
2017-06-14T06:38:54.134Z,54496
2017-06-14T06:40:16.016Z,53632
2017-06-14T06:41:38.253Z,59168
2017-06-14T06:43:00.423Z,62816
2017-06-14T06:44:21.964Z,60896
2017-06-14T06:45:44.799Z,60992
2017-06-14T06:47:06.709Z,63168
2017-06-14T06:48:28.541Z,69024
2017-06-14T06:49:51.063Z,74400
2017-06-14T06:51:13.225Z,77664
2017-06-14T06:52:35.082Z,73216
2017-06-14T06:53:57.037Z,72576
2017-06-14T06:55:18.903Z,74720
2017-06-14T06:56:40.755Z,72768
2017-06-14T06:58:02.598Z,66016
2017-06-14T06:59:24.866Z,69696
2017-06-14T07:00:46.091Z,68032
2017-06-14T07:02:08.583Z,68064
2017-06-14T07:03:30.797Z,69440
2017-06-14T07:04:53.021Z,71264
2017-06-14T07:06:14.883Z,76192
2017-06-14T07:07:37.785Z,69824
2017-06-14T07:08:59.635Z,70816
2017-06-14T07:10:21.832Z,71872
2017-06-14T07:11:43.983Z,77344
2017-06-14T07:13:05.833Z,77760
2017-06-14T07:14:28.002Z,80608
2017-06-14T07:15:49.602Z,70784
2017-06-14T07:17:11.143Z,82976
2017-06-14T07:18:33.973Z,82720
2017-06-14T07:19:55.823Z,82560
2017-06-14T07:21:17.971Z,20608
2017-06-14T07:22:40.559Z,44480
2017-06-14T07:24:02.462Z,38752
2017-06-14T07:25:24.683Z,17344
2017-06-14T07:26:46.854Z,16016
2017-06-14T07:28:09.175Z,17664
2017-06-14T07:29:32.020Z,37440
2017-06-14T07:30:53.574Z,33600
2017-06-14T07:32:15.404Z,32736
2017-06-14T07:33:37.577Z,34208
2017-06-14T07:35:00.090Z,35456
2017-06-14T07:36:22.582Z,37216
2017-06-14T07:37:44.465Z,39072
2017-06-14T07:39:06.632Z,39200
2017-06-14T07:40:29.094Z,36448
2017-06-14T07:41:51.273Z,28160
2017-06-14T07:43:13.760Z,33408
2017-06-14T07:44:36.234Z,32544
2017-06-14T07:45:58.152Z,31104
2017-06-14T07:47:20.325Z,29024
2017-06-14T07:48:42.183Z,29600
2017-06-14T07:50:04.320Z,30912
2017-06-14T07:51:26.169Z,32832
2017-06-14T07:52:48.130Z,32064
2017-06-14T07:54:10.411Z,22016
2017-06-14T07:55:32.069Z,13084
2017-06-14T07:56:53.621Z,26464
2017-06-14T07:58:15.622Z,15924
2017-06-14T07:59:37.789Z,28352
2017-06-14T08:00:59.956Z,29024
2017-06-14T08:02:22.535Z,28544
2017-06-14T08:03:44.707Z,29760
2017-06-14T08:05:05.926Z,31296
2017-06-14T08:06:28.094Z,30688
2017-06-14T08:07:49.759Z,27584
2017-06-14T08:09:12.020Z,24736
2017-06-14T08:10:34.682Z,24896
2017-06-14T08:11:56.872Z,21888
2017-06-14T08:13:19.073Z,16524
2017-06-14T08:14:40.681Z,17024
2017-06-14T08:16:02.854Z,15812
2017-06-14T08:17:24.375Z,17088
2017-06-14T08:18:46.853Z,20416
2017-06-14T08:20:09.345Z,21024
2017-06-14T08:21:31.203Z,21888
2017-06-14T08:22:53.792Z,21440
2017-06-14T08:24:16.669Z,20768
2017-06-14T08:25:38.838Z,20544
2017-06-14T08:27:01.424Z,19744
2017-06-14T08:28:23.585Z,17004
2017-06-14T08:29:46.202Z,14412
2017-06-14T08:31:08.033Z,13092
2017-06-14T08:32:29.892Z,11388
2017-06-14T08:33:52.372Z,9684
2017-06-14T08:35:15.151Z,8972
2017-06-14T08:36:37.721Z,9056
2017-06-14T08:37:59.563Z,10004
2017-06-14T08:39:22.302Z,10904
2017-06-14T08:40:44.545Z,12020
2017-06-14T08:42:06.704Z,14160
2017-06-14T08:43:28.861Z,16176
2017-06-14T08:44:51.335Z,15164
2017-06-14T08:46:13.178Z,16392
2017-06-14T08:47:34.403Z,18464
2017-06-14T08:48:56.276Z,15400
2017-06-14T08:50:18.122Z,13700
2017-06-14T08:51:40.361Z,11428
2017-06-14T08:53:02.252Z,10756
2017-06-14T08:54:24.094Z,11612
2017-06-14T08:55:45.304Z,13932
2017-06-14T08:57:06.828Z,15636
2017-06-14T08:58:29.293Z,15740
2017-06-14T08:59:51.138Z,15384
2017-06-14T09:01:13.305Z,13804
2017-06-14T09:02:35.142Z,13388
2017-06-14T09:03:57.423Z,13832
2017-06-14T09:05:19.262Z,13264
2017-06-14T09:06:41.120Z,14392
2017-06-14T09:08:03.021Z,12300
2017-06-14T09:09:25.509Z,10708
2017-06-14T09:10:47.514Z,10020
2017-06-14T09:12:10.102Z,10276
2017-06-14T09:13:32.254Z,11156
2017-06-14T09:14:54.574Z,10156
2017-06-14T09:16:16.842Z,9660
2017-06-14T09:17:39.061Z,10204
2017-06-14T09:19:01.262Z,10260
2017-06-14T09:20:24.355Z,10080
2017-06-14T09:21:47.001Z,9556
2017-06-14T09:23:08.842Z,8816
2017-06-14T09:24:31.352Z,8652
2017-06-14T09:25:53.610Z,8352
2017-06-14T09:27:15.761Z,7748
2017-06-14T09:28:37.718Z,7440
2017-06-14T09:30:00.541Z,7360
2017-06-14T09:31:23.024Z,7332
2017-06-14T09:32:44.862Z,7828
2017-06-14T09:34:07.100Z,8868
2017-06-14T09:35:29.681Z,9844
2017-06-14T09:36:51.881Z,9088
2017-06-14T09:38:13.586Z,8664
2017-06-14T09:39:35.498Z,8852
2017-06-14T09:40:57.664Z,8220
2017-06-14T09:42:19.816Z,7900
2017-06-14T09:43:41.649Z,7912
2017-06-14T09:45:03.492Z,7944
2017-06-14T09:46:26.004Z,7996
2017-06-14T09:47:47.835Z,8380
2017-06-14T09:49:09.669Z,8796
2017-06-14T09:50:31.191Z,8496
2017-06-14T09:51:53.022Z,8188
2017-06-14T09:53:14.867Z,7992
2017-06-14T09:54:37.032Z,7404
2017-06-14T09:55:59.648Z,7988
2017-06-14T09:57:22.151Z,8340
2017-06-14T09:58:44.810Z,8688
2017-06-14T10:00:06.639Z,9288
2017-06-14T10:01:28.850Z,10580
2017-06-14T10:02:50.720Z,12108
2017-06-14T10:04:13.246Z,13420
2017-06-14T10:05:34.487Z,14168
2017-06-14T10:06:56.316Z,16104
2017-06-14T10:08:18.892Z,16704
2017-06-14T10:09:41.121Z,15468
2017-06-14T10:11:03.071Z,14336
2017-06-14T10:12:24.972Z,12560
2017-06-14T10:13:47.467Z,11348
2017-06-14T10:15:09.380Z,9556
2017-06-14T10:16:31.229Z,8968
2017-06-14T10:17:53.441Z,8948
2017-06-14T10:19:15.279Z,8996
2017-06-14T10:20:36.848Z,9520
2017-06-14T10:21:59.337Z,10404
2017-06-14T10:23:21.610Z,11648
2017-06-14T10:24:44.081Z,12768
2017-06-14T10:26:06.270Z,14092
2017-06-14T10:27:28.120Z,15680
2017-06-14T10:28:50.607Z,17728
2017-06-14T10:30:12.545Z,18688
2017-06-14T10:31:34.051Z,17376
2017-06-14T10:32:56.214Z,17312
2017-06-14T10:34:18.359Z,15932
2017-06-14T10:35:40.845Z,14164
2017-06-14T10:37:02.690Z,11812
2017-06-14T10:38:24.543Z,10968
2017-06-14T10:39:46.826Z,10940
2017-06-14T10:41:08.680Z,11256
2017-06-14T10:42:30.851Z,10292
2017-06-14T10:43:53.091Z,10124
2017-06-14T10:45:14.917Z,10296
2017-06-14T10:46:37.072Z,10976
2017-06-14T10:47:59.540Z,11204
2017-06-14T10:49:21.700Z,11088
2017-06-14T10:50:43.970Z,10584
2017-06-14T10:52:06.461Z,10304
2017-06-14T10:53:28.940Z,11124
2017-06-14T10:54:51.100Z,12320
2017-06-14T10:56:13.581Z,13648
2017-06-14T10:57:36.182Z,13932
2017-06-14T10:58:58.329Z,13448
2017-06-14T11:00:20.259Z,13868
2017-06-14T11:01:42.106Z,13676
2017-06-14T11:03:04.347Z,12672
2017-06-14T11:04:26.525Z,11596
2017-06-14T11:05:48.460Z,11952
2017-06-14T11:07:10.642Z,11180
2017-06-14T11:08:32.787Z,10428
2017-06-14T11:09:55.020Z,10016
2017-06-14T11:11:17.731Z,9856
2017-06-14T11:12:40.215Z,9732
2017-06-14T11:14:02.389Z,9684
2017-06-14T11:15:23.957Z,9248
2017-06-14T11:16:46.110Z,9400
2017-06-14T11:18:08.589Z,10500
2017-06-14T11:19:30.762Z,11644
2017-06-14T11:20:52.661Z,11300
2017-06-14T11:22:14.172Z,11372
2017-06-14T11:23:36.017Z,11548
2017-06-14T11:24:58.528Z,11364
2017-06-14T11:26:20.999Z,9848
2017-06-14T11:27:42.897Z,9260
2017-06-14T11:29:04.870Z,8556
2017-06-14T11:30:27.333Z,8288
2017-06-14T11:31:49.821Z,8880
2017-06-14T11:33:11.688Z,8788
2017-06-14T11:34:33.915Z,9268
2017-06-14T11:35:56.450Z,9428
2017-06-14T11:37:18.471Z,9840
2017-06-14T11:38:40.996Z,10168
2017-06-14T11:40:02.831Z,10748
2017-06-14T11:41:25.316Z,11052
2017-06-14T11:42:47.179Z,11440
2017-06-14T11:44:09.054Z,12068
2017-06-14T11:45:30.665Z,12340
2017-06-14T11:46:52.846Z,12216
2017-06-14T11:48:15.029Z,11808
2017-06-14T11:49:37.640Z,10696
2017-06-14T11:50:59.880Z,11188
2017-06-14T11:52:22.061Z,12320
2017-06-14T11:53:44.551Z,12136
2017-06-14T11:55:07.116Z,11196
2017-06-14T11:56:28.659Z,10460
2017-06-14T11:57:49.929Z,10680
2017-06-14T11:59:11.858Z,10724
2017-06-14T12:00:33.695Z,10632
2017-06-14T12:01:55.619Z,10392
2017-06-14T12:03:17.798Z,10556
2017-06-14T12:04:40.261Z,11076
2017-06-14T12:06:02.110Z,11964
2017-06-14T12:07:24.281Z,12528
2017-06-14T12:08:46.880Z,13228
2017-06-14T12:10:08.743Z,14352
2017-06-14T12:11:31.240Z,13408
2017-06-14T12:12:53.095Z,12304
2017-06-14T12:14:14.632Z,11288
2017-06-14T12:15:36.802Z,10356
2017-06-14T12:16:58.644Z,9128
2017-06-14T12:18:20.851Z,8168
2017-06-14T12:19:42.691Z,7712
2017-06-14T12:21:04.842Z,7652
2017-06-14T12:22:26.998Z,7888
2017-06-14T12:23:49.473Z,8372
2017-06-14T12:25:11.317Z,9164
2017-06-14T12:26:33.185Z,9040
2017-06-14T12:27:55.782Z,9032
2017-06-14T12:29:17.974Z,9276
2017-06-14T12:30:40.131Z,9728
2017-06-14T12:32:02.606Z,10000
2017-06-14T12:33:24.755Z,10488
2017-06-14T12:34:46.942Z,10964
2017-06-14T12:36:09.422Z,11640
2017-06-14T12:37:31.994Z,12340
2017-06-14T12:38:54.482Z,13296
2017-06-14T12:40:16.713Z,14284
2017-06-14T12:41:38.869Z,15392
2017-06-14T12:43:00.701Z,16576
2017-06-14T12:44:23.279Z,16576
2017-06-14T12:45:45.769Z,16160
2017-06-14T12:47:07.916Z,15520
2017-06-14T12:48:30.386Z,15260
2017-06-14T12:49:52.602Z,15152
2017-06-14T12:51:15.111Z,15476
2017-06-14T12:52:36.729Z,15332
2017-06-14T12:53:59.202Z,14648
2017-06-14T12:55:21.458Z,12228
2017-06-14T12:56:43.358Z,11184
2017-06-14T12:58:05.508Z,10288
2017-06-14T12:59:27.709Z,9676
2017-06-14T13:00:49.623Z,9788
2017-06-14T13:02:12.111Z,9352
2017-06-14T13:03:34.392Z,9324
2017-06-14T13:04:56.262Z,9448
2017-06-14T13:06:17.817Z,9704
2017-06-14T13:07:40.441Z,10140
2017-06-14T13:09:02.949Z,10400
2017-06-14T13:10:25.241Z,10464
2017-06-14T13:11:47.221Z,10580
2017-06-14T13:13:08.411Z,10160
2017-06-14T13:14:30.899Z,10228
2017-06-14T13:15:53.366Z,10696
2017-06-14T13:17:15.551Z,11160
2017-06-14T13:18:38.105Z,11716
2017-06-14T13:19:59.968Z,11784
2017-06-14T13:21:21.933Z,11492
2017-06-14T13:22:44.445Z,12008
2017-06-14T13:24:06.632Z,13228
2017-06-14T13:25:28.842Z,14732
2017-06-14T13:26:50.683Z,15904
2017-06-14T13:28:12.854Z,16576
2017-06-14T13:29:35.333Z,15840
2017-06-14T13:30:57.962Z,14900
2017-06-14T13:32:20.445Z,14616
2017-06-14T13:33:42.585Z,14236
2017-06-14T13:35:04.754Z,13696
2017-06-14T13:36:26.942Z,13504
2017-06-14T13:37:49.183Z,12976
2017-06-14T13:39:11.355Z,12612
2017-06-14T13:40:33.322Z,12856
2017-06-14T13:41:55.792Z,12976
2017-06-14T13:43:17.643Z,12264
2017-06-14T13:44:39.816Z,11100
2017-06-14T13:46:02.293Z,10756
2017-06-14T13:47:24.934Z,10612
2017-06-14T13:48:47.390Z,11024
2017-06-14T13:50:09.572Z,11664
2017-06-14T13:51:32.049Z,13028
2017-06-14T13:52:53.915Z,13016
2017-06-14T13:54:16.193Z,12264
2017-06-14T13:55:38.400Z,11908
2017-06-14T13:57:00.886Z,11944
2017-06-14T13:58:23.420Z,12044
2017-06-14T13:59:45.888Z,12748
2017-06-14T14:01:08.276Z,13132
2017-06-14T14:02:30.122Z,13024
2017-06-14T14:03:52.821Z,12772
2017-06-14T14:05:15.009Z,12888
2017-06-14T14:06:37.189Z,13504
2017-06-14T14:07:59.363Z,13860
2017-06-14T14:09:21.202Z,14312
2017-06-14T14:10:43.369Z,14836
2017-06-14T14:12:05.202Z,14788
2017-06-14T14:13:27.684Z,14100
2017-06-14T14:14:49.846Z,13912
2017-06-14T14:16:12.322Z,14600
2017-06-14T14:17:34.502Z,15088
2017-06-14T14:18:56.671Z,15032
2017-06-14T14:20:19.152Z,14844
2017-06-14T14:21:41.321Z,14864
2017-06-14T14:23:03.486Z,14552
2017-06-14T14:24:25.842Z,14424
2017-06-14T14:25:47.685Z,14536
2017-06-14T14:27:09.543Z,14044
2017-06-14T14:28:32.072Z,12952
2017-06-14T14:29:54.721Z,12452
2017-06-14T14:31:16.986Z,12236
2017-06-14T14:32:39.167Z,12372
2017-06-14T14:34:01.006Z,11948
2017-06-14T14:35:23.018Z,11836
2017-06-14T14:36:44.862Z,12128
2017-06-14T14:38:07.342Z,12680
2017-06-14T14:39:29.172Z,13112
2017-06-14T14:40:51.682Z,13456
2017-06-14T14:42:13.532Z,13348
2017-06-14T14:43:35.494Z,13012
2017-06-14T14:44:57.662Z,12288
2017-06-14T14:46:19.847Z,11920
2017-06-14T14:47:42.459Z,11252
2017-06-14T14:49:05.028Z,10096
2017-06-14T14:50:27.012Z,8348
2017-06-14T14:51:49.482Z,7560
2017-06-14T14:53:11.652Z,7264
2017-06-14T14:54:34.125Z,7376
2017-06-14T14:55:56.281Z,7176
2017-06-14T14:57:18.451Z,6840
2017-06-14T14:58:40.941Z,6684
2017-06-14T15:00:02.796Z,6656
2017-06-14T15:01:24.670Z,6768
2017-06-14T15:02:47.152Z,6976
2017-06-14T15:04:08.999Z,7140
2017-06-14T15:05:31.183Z,7248
2017-06-14T15:06:53.362Z,7264
2017-06-14T15:08:16.111Z,7236
2017-06-14T15:09:38.294Z,7260
2017-06-14T15:11:00.480Z,7256
2017-06-14T15:12:22.644Z,7436
2017-06-14T15:13:44.801Z,7596
2017-06-14T15:15:06.689Z,7632
2017-06-14T15:16:28.527Z,7856
2017-06-14T15:17:51.008Z,8392
2017-06-14T15:19:13.228Z,9052
2017-06-14T15:20:34.754Z,9400
2017-06-14T15:21:57.009Z,9448
2017-06-14T15:23:18.561Z,9460
2017-06-14T15:24:41.081Z,9776
2017-06-14T15:26:03.552Z,10308
2017-06-14T15:27:25.837Z,10700
2017-06-14T15:28:47.721Z,10452
2017-06-14T15:30:09.322Z,10148
2017-06-14T15:31:31.892Z,9244
2017-06-14T15:32:54.387Z,10048
2017-06-14T15:34:16.582Z,11192
2017-06-14T15:35:38.504Z,11628
2017-06-14T15:37:01.047Z,11692
2017-06-14T15:38:22.890Z,11156
2017-06-14T15:39:44.479Z,10708
2017-06-14T15:41:06.647Z,10372
2017-06-14T15:42:28.997Z,10576
2017-06-14T15:43:50.881Z,10908
2017-06-14T15:45:12.746Z,11272
2017-06-14T15:46:34.920Z,11680
2017-06-14T15:47:56.450Z,11676
2017-06-14T15:49:18.941Z,11580
2017-06-14T15:50:41.152Z,10224
2017-06-14T15:52:03.314Z,9072
2017-06-14T15:53:25.481Z,8672
2017-06-14T15:54:47.668Z,8804
2017-06-14T15:56:09.501Z,9136
2017-06-14T15:57:31.351Z,9156
2017-06-14T15:58:53.192Z,8668
2017-06-14T16:00:15.352Z,8444
2017-06-14T16:01:37.938Z,8060
2017-06-14T16:03:00.441Z,8360
2017-06-14T16:04:22.902Z,8648
2017-06-14T16:05:45.186Z,9316
2017-06-14T16:07:06.713Z,9324
2017-06-14T16:08:28.899Z,9076
2017-06-14T16:09:51.372Z,8256
2017-06-14T16:11:14.001Z,8184
2017-06-14T16:12:36.237Z,8304
2017-06-14T16:13:58.754Z,8848
2017-06-14T16:15:20.932Z,8660
2017-06-14T16:16:43.162Z,8868
2017-06-14T16:18:05.673Z,9580
2017-06-14T16:19:28.271Z,9288
2017-06-14T16:20:50.511Z,9304
2017-06-14T16:22:13.133Z,9224
2017-06-14T16:23:35.311Z,9552
2017-06-14T16:24:57.943Z,9572
2017-06-14T16:26:19.776Z,9776
2017-06-14T16:27:41.953Z,9876
2017-06-14T16:29:04.340Z,10076
2017-06-14T16:30:26.141Z,10152
2017-06-14T16:31:48.641Z,10004
2017-06-14T16:33:10.521Z,9812
2017-06-14T16:34:32.712Z,10032
2017-06-14T16:35:55.200Z,9968
2017-06-14T16:37:17.054Z,9556
2017-06-14T16:38:39.303Z,10180
2017-06-14T16:40:01.896Z,10600
2017-06-14T16:41:24.085Z,10828
2017-06-14T16:42:46.242Z,10572
2017-06-14T16:44:08.420Z,9980
2017-06-14T16:45:30.263Z,9712
2017-06-14T16:46:52.750Z,9716
2017-06-14T16:48:14.972Z,9932
2017-06-14T16:49:37.212Z,10144
2017-06-14T16:50:59.725Z,10260
2017-06-14T16:52:22.241Z,10276
2017-06-14T16:53:44.464Z,10116
2017-06-14T16:55:06.971Z,9848
2017-06-14T16:56:28.860Z,9356
2017-06-14T16:57:51.061Z,9728
2017-06-14T16:59:13.311Z,9864
2017-06-14T17:00:35.902Z,9940
2017-06-14T17:01:58.441Z,9744
2017-06-14T17:03:20.945Z,9540
2017-06-14T17:04:43.158Z,9144
2017-06-14T17:06:05.653Z,8692
2017-06-14T17:07:28.352Z,8600
2017-06-14T17:08:50.852Z,8652
2017-06-14T17:10:12.992Z,8196
2017-06-14T17:11:35.168Z,7440
2017-06-14T17:12:57.481Z,7136
2017-06-14T17:14:19.338Z,7096
2017-06-14T17:15:41.547Z,7036
2017-06-14T17:17:03.721Z,6876
2017-06-14T17:18:25.579Z,6840
2017-06-14T17:19:47.121Z,6596
2017-06-14T17:21:09.777Z,6460
2017-06-14T17:22:32.050Z,6264
2017-06-14T17:23:54.269Z,6040
2017-06-14T17:25:16.901Z,5756
2017-06-14T17:26:39.069Z,5304
2017-06-14T17:28:01.340Z,4888
2017-06-14T17:29:23.672Z,4652
2017-06-14T17:30:45.781Z,4528
2017-06-14T17:32:08.394Z,4692
2017-06-14T17:33:30.767Z,4852
2017-06-14T17:34:53.491Z,4856
2017-06-14T17:36:15.507Z,4840
2017-06-14T17:37:37.731Z,4724
2017-06-14T17:39:00.401Z,4476
2017-06-14T17:40:22.931Z,4436
2017-06-14T17:41:45.200Z,4520
2017-06-14T17:43:07.730Z,4712
2017-06-14T17:44:29.963Z,4960
2017-06-14T17:45:52.304Z,5288
2017-06-14T17:47:14.821Z,5612
2017-06-14T17:48:37.390Z,5868
2017-06-14T17:49:59.558Z,6048
2017-06-14T17:51:21.749Z,6172
2017-06-14T17:52:44.039Z,6248
2017-06-14T17:54:06.205Z,6304
2017-06-14T17:55:28.399Z,6344
2017-06-14T17:56:50.705Z,6376
2017-06-14T17:58:13.092Z,6404
2017-06-14T17:59:35.580Z,6404
2017-06-14T18:00:58.094Z,6384
2017-06-14T18:02:20.579Z,6364
2017-06-14T18:03:42.881Z,6344
2017-06-14T18:05:05.211Z,6340
2017-06-14T18:06:27.790Z,6336
2017-06-14T18:07:50.029Z,6324
2017-06-14T18:09:12.353Z,6308
2017-06-14T18:10:34.878Z,6260
2017-06-14T18:11:57.202Z,6188